createdAt,value
2022-09-28T00:02:27.187Z,101010.47
2022-09-28T00:04:54.521Z,101002.53
2022-09-28T00:07:21.626Z,101008.91
2022-09-28T00:09:48.799Z,101000.25
2022-09-28T00:12:15.933Z,101001.91
2022-09-28T00:14:45.028Z,100991.31
2022-09-28T00:17:12.737Z,100992.25
2022-09-28T00:19:44.189Z,100992.31
2022-09-28T00:22:11.513Z,100989.66
2022-09-28T00:24:38.851Z,100991.63
2022-09-28T00:27:06.513Z,100991.63
2022-09-28T00:29:36.481Z,100982.88
2022-09-28T00:32:06.667Z,100978.47
2022-09-28T00:34:41.478Z,100976.75
2022-09-28T00:37:13.365Z,100975.00
2022-09-28T00:39:44.615Z,100969.53
2022-09-28T00:42:15.354Z,100974.09
2022-09-28T00:44:56.556Z,100974.97
2022-09-28T00:47:31.441Z,100967.09
2022-09-28T00:50:13.831Z,100979.50
2022-09-28T00:52:54.121Z,100973.38
2022-09-28T00:55:32.118Z,100969.00
2022-09-28T00:58:04.027Z,100974.25
2022-09-28T01:00:31.719Z,100977.03
2022-09-28T01:03:01.620Z,100971.78
2022-09-28T01:05:28.897Z,100963.06
2022-09-28T01:07:57.887Z,100959.41
2022-09-28T01:10:25.644Z,100956.81
2022-09-28T01:12:52.935Z,100964.69
2022-09-28T01:15:22.208Z,100955.06
2022-09-28T01:18:03.526Z,100946.38
2022-09-28T01:20:53.281Z,100955.19
2022-09-28T01:23:35.699Z,100951.78
2022-09-28T01:26:40.278Z,100952.56
2022-09-28T01:29:19.549Z,100947.28
2022-09-28T01:31:53.186Z,100935.00
2022-09-28T01:34:39.778Z,100948.16
2022-09-28T01:37:14.255Z,100942.09
2022-09-28T01:39:46.446Z,100928.06
2022-09-28T01:42:20.986Z,100939.53
2022-09-28T01:44:51.437Z,100935.13
2022-09-28T01:47:23.841Z,100935.16
2022-09-28T01:50:01.145Z,100934.25
2022-09-28T01:52:43.439Z,100929.91
2022-09-28T01:55:43.720Z,100927.34
2022-09-28T01:58:30.017Z,100922.03
2022-09-28T02:01:04.081Z,100918.50
2022-09-28T02:03:47.061Z,100907.97
2022-09-28T02:06:32.188Z,100904.56
2022-09-28T02:09:14.264Z,100902.78
2022-09-28T02:11:52.028Z,100912.38
2022-09-28T02:14:20.371Z,100898.44
2022-09-28T02:16:54.513Z,100895.69
2022-09-28T02:19:28.538Z,100886.09
2022-09-28T02:22:34.239Z,100890.53
2022-09-28T02:25:10.153Z,100891.47
2022-09-28T02:28:19.061Z,100886.22
2022-09-28T02:30:48.999Z,100887.97
2022-09-28T02:33:22.910Z,100872.25
2022-09-28T02:35:50.892Z,100886.25
2022-09-28T02:38:19.812Z,100868.72
2022-09-28T02:41:04.630Z,100867.00
2022-09-28T02:43:46.736Z,100869.59
2022-09-28T02:46:45.393Z,100852.97
2022-09-28T02:49:50.425Z,100852.94
2022-09-28T02:52:52.536Z,100851.25
2022-09-28T02:56:02.376Z,100852.97
2022-09-28T02:58:33.016Z,100839.88
2022-09-28T03:01:37.377Z,100845.97
2022-09-28T03:04:19.121Z,100838.16
2022-09-28T03:06:54.958Z,100846.03
2022-09-28T03:09:37.716Z,100840.81
2022-09-28T03:12:11.192Z,100846.06
2022-09-28T03:14:38.521Z,100836.41
2022-09-28T03:17:05.748Z,100834.66
2022-09-28T03:19:34.775Z,100840.78
2022-09-28T03:22:02.002Z,100838.16
2022-09-28T03:24:29.417Z,100844.28
2022-09-28T03:26:59.509Z,100848.69
2022-09-28T03:29:27.032Z,100836.50
2022-09-28T03:32:00.175Z,100846.94
2022-09-28T03:34:27.488Z,100846.91
2022-09-28T03:36:54.900Z,100853.06
2022-09-28T03:39:22.121Z,100844.25
2022-09-28T03:41:49.330Z,100837.28
2022-09-28T03:44:18.601Z,100839.88
2022-09-28T03:46:47.606Z,100842.50
2022-09-28T03:49:15.072Z,100840.69
2022-09-28T03:51:42.173Z,100834.63
2022-09-28T03:54:09.452Z,100830.19
2022-09-28T03:56:36.791Z,100832.81
2022-09-28T03:59:04.765Z,100833.69
2022-09-28T04:01:32.621Z,100830.19
2022-09-28T04:04:00.150Z,100824.09
2022-09-28T04:06:28.251Z,100826.75
2022-09-28T04:08:55.586Z,100818.84
2022-09-28T04:11:24.281Z,100824.06
2022-09-28T04:13:51.483Z,100820.50
2022-09-28T04:16:19.838Z,100822.25
2022-09-28T04:19:05.837Z,100818.78
2022-09-28T04:21:33.053Z,100812.63
2022-09-28T04:24:10.569Z,100817.03
2022-09-28T04:26:41.003Z,100808.22
2022-09-28T04:29:17.495Z,100803.94
2022-09-28T04:31:55.802Z,100805.66
2022-09-28T04:34:37.145Z,100805.66
2022-09-28T04:37:05.582Z,100804.03
2022-09-28T04:39:32.749Z,100808.41
2022-09-28T04:42:00.247Z,100806.59
2022-09-28T04:44:31.557Z,100809.25
2022-09-28T04:47:05.276Z,100807.56
2022-09-28T04:49:38.697Z,100808.47
2022-09-28T04:52:17.209Z,100809.28
2022-09-28T04:54:56.482Z,100808.41
2022-09-28T04:57:25.881Z,100799.72
2022-09-28T04:59:53.384Z,100799.75
2022-09-28T05:02:21.667Z,100795.31
2022-09-28T05:05:08.186Z,100786.56
2022-09-28T05:08:07.463Z,100788.28
2022-09-28T05:10:35.477Z,100781.25
2022-09-28T05:13:03.302Z,100779.59
2022-09-28T05:15:33.414Z,100782.25
2022-09-28T05:18:02.077Z,100777.84
2022-09-28T05:20:42.119Z,100772.56
2022-09-28T05:23:13.649Z,100766.47
2022-09-28T05:25:43.701Z,100770.91
2022-09-28T05:28:29.590Z,100776.13
2022-09-28T05:31:15.725Z,100767.34
2022-09-28T05:34:08.842Z,100768.28
2022-09-28T05:36:37.495Z,100759.53
2022-09-28T05:39:08.457Z,100767.38
2022-09-28T05:41:38.916Z,100759.50
2022-09-28T05:44:06.096Z,100757.78
2022-09-28T05:46:35.093Z,100762.16
2022-09-28T05:49:02.772Z,100752.53
2022-09-28T05:51:30.433Z,100750.78
2022-09-28T05:54:01.839Z,100747.25
2022-09-28T05:56:35.639Z,100748.13
2022-09-28T05:59:06.534Z,100741.16
2022-09-28T06:01:34.376Z,100748.13
2022-09-28T06:04:03.048Z,100756.81
2022-09-28T06:06:35.419Z,100750.69
2022-09-28T06:09:05.451Z,100754.16
2022-09-28T06:11:37.453Z,100747.25
2022-09-28T06:14:17.023Z,100741.97
2022-09-28T06:16:45.461Z,100739.31
2022-09-28T06:19:13.527Z,100726.31
2022-09-28T06:22:06.520Z,100728.03
2022-09-28T06:24:41.740Z,100741.94
2022-09-28T06:27:09.170Z,100751.53
2022-09-28T06:29:37.565Z,100736.78
2022-09-28T06:32:04.756Z,100748.19
2022-09-28T06:34:32.373Z,100744.63
2022-09-28T06:36:59.645Z,100751.59
2022-09-28T06:39:28.481Z,100752.44
2022-09-28T06:41:55.733Z,100752.44
2022-09-28T06:44:23.155Z,100759.50
2022-09-28T06:47:19.453Z,100761.06
2022-09-28T06:50:12.399Z,100766.34
2022-09-28T06:52:58.424Z,100756.66
2022-09-28T06:55:50.446Z,100764.50
2022-09-28T06:58:20.466Z,100758.31
2022-09-28T07:00:50.554Z,100751.38
2022-09-28T07:03:20.715Z,100755.75
2022-09-28T07:06:05.258Z,100756.53
2022-09-28T07:09:22.443Z,100765.34
2022-09-28T07:12:10.991Z,100766.94
2022-09-28T07:14:56.633Z,100773.28
2022-09-28T07:17:26.381Z,100770.56
2022-09-28T07:20:01.203Z,100769.66
2022-09-28T07:22:41.799Z,100770.44
2022-09-28T07:25:14.491Z,100784.44
2022-09-28T07:28:00.544Z,100783.72
2022-09-28T07:30:46.458Z,100779.09
2022-09-28T07:33:33.083Z,100779.81
2022-09-28T07:36:23.046Z,100779.78
2022-09-28T07:38:52.865Z,100781.34
2022-09-28T07:41:32.782Z,100786.78
2022-09-28T07:44:06.351Z,100791.16
2022-09-28T07:46:37.236Z,100797.34
2022-09-28T07:49:20.599Z,100785.06
2022-09-28T07:52:08.295Z,100791.91
2022-09-28T07:54:40.259Z,100788.41
2022-09-28T07:57:33.786Z,100791.03
2022-09-28T08:00:21.568Z,100792.66
2022-09-28T08:02:48.969Z,100797.13
2022-09-28T08:05:21.794Z,100796.22
2022-09-28T08:07:49.056Z,100794.25
2022-09-28T08:10:19.696Z,100791.63
2022-09-28T08:13:27.096Z,100798.09
2022-09-28T08:16:35.336Z,100798.56
2022-09-28T08:19:13.420Z,100801.34
2022-09-28T08:21:46.432Z,100802.16
2022-09-28T08:24:16.241Z,100808.97
2022-09-28T08:26:45.091Z,100814.16
2022-09-28T08:29:17.198Z,100800.94
2022-09-28T08:31:50.223Z,100802.47
2022-09-28T08:34:37.251Z,100808.84
2022-09-28T08:37:27.481Z,100800.66
2022-09-28T08:40:21.015Z,100797.53
2022-09-28T08:44:01.122Z,100794.09
2022-09-28T08:47:31.102Z,100796.59
2022-09-28T08:50:28.919Z,100798.53
2022-09-28T08:53:15.605Z,100803.16
2022-09-28T08:55:55.004Z,100798.78
2022-09-28T08:58:28.463Z,100797.88
2022-09-28T09:00:55.782Z,100798.56
2022-09-28T09:03:33.004Z,100792.16
2022-09-28T09:06:55.462Z,100791.00
2022-09-28T09:10:28.317Z,100795.06
2022-09-28T09:13:03.565Z,100795.03
2022-09-28T09:15:30.895Z,100789.09
2022-09-28T09:18:15.501Z,100788.50
2022-09-28T09:20:59.318Z,100786.00
2022-09-28T09:23:49.608Z,100788.63
2022-09-28T09:26:23.550Z,100787.03
2022-09-28T09:29:13.879Z,100786.38
2022-09-28T09:32:17.185Z,100767.69
2022-09-28T09:35:05.680Z,100773.69
2022-09-28T09:38:20.226Z,100770.34
2022-09-28T09:41:27.090Z,100768.63
2022-09-28T09:44:39.518Z,100767.47
2022-09-28T09:47:43.230Z,100771.66
2022-09-28T09:50:46.266Z,100759.19
2022-09-28T09:53:38.345Z,100747.63
2022-09-28T09:56:19.896Z,100746.47
2022-09-28T09:59:28.455Z,100748.50
2022-09-28T10:02:14.795Z,100741.47
2022-09-28T10:04:55.168Z,100745.00
2022-09-28T10:08:03.107Z,100722.38
2022-09-28T10:10:35.583Z,100716.25
2022-09-28T10:13:11.877Z,100727.56
2022-09-28T10:15:44.530Z,100727.44
2022-09-28T10:18:36.353Z,100720.25
2022-09-28T10:21:14.808Z,100724.88
2022-09-28T10:23:55.555Z,100714.66
2022-09-28T10:26:28.015Z,100712.06
2022-09-28T10:29:16.739Z,100711.09
2022-09-28T10:31:48.687Z,100708.25
2022-09-28T10:34:32.910Z,100700.31
2022-09-28T10:37:11.555Z,100702.97
2022-09-28T10:39:59.382Z,100703.06
2022-09-28T10:42:35.235Z,100697.66
2022-09-28T10:45:24.874Z,100690.47
2022-09-28T10:47:52.285Z,100686.91
2022-09-28T10:50:27.875Z,100676.53
2022-09-28T10:53:21.743Z,100690.19
2022-09-28T10:56:33.131Z,100680.41
2022-09-28T10:59:30.505Z,100696.06
2022-09-28T11:02:33.602Z,100690.16
2022-09-28T11:05:28.068Z,100679.47
2022-09-28T11:08:01.116Z,100687.75
2022-09-28T11:10:36.259Z,100685.09
2022-09-28T11:13:11.421Z,100684.25
2022-09-28T11:15:44.458Z,100670.94
2022-09-28T11:18:31.699Z,100673.31
2022-09-28T11:21:24.513Z,100665.47
2022-09-28T11:24:19.715Z,100649.28
2022-09-28T11:26:56.946Z,100651.63
2022-09-28T11:29:38.805Z,100650.59
2022-09-28T11:32:30.755Z,100639.81
2022-09-28T11:35:45.629Z,100636.06
2022-09-28T11:38:31.795Z,100633.38
2022-09-28T11:41:33.459Z,100618.44
2022-09-28T11:44:19.479Z,100612.34
2022-09-28T11:47:21.564Z,100614.19
2022-09-28T11:50:06.598Z,100609.38
2022-09-28T11:52:41.198Z,100602.22
2022-09-28T11:55:36.511Z,100602.94
2022-09-28T11:58:15.007Z,100599.53
2022-09-28T12:01:23.482Z,100590.97
2022-09-28T12:04:22.486Z,100585.09
2022-09-28T12:07:03.292Z,100574.16
2022-09-28T12:09:45.971Z,100562.25
2022-09-28T12:12:32.922Z,100555.56
2022-09-28T12:15:13.183Z,100547.78
2022-09-28T12:17:47.413Z,100544.13
2022-09-28T12:20:28.342Z,100535.84
2022-09-28T12:23:15.128Z,100533.91
2022-09-28T12:25:47.873Z,100524.88
2022-09-28T12:28:27.765Z,100533.09
2022-09-28T12:31:06.844Z,100520.69
2022-09-28T12:33:36.860Z,100519.34
2022-09-28T12:36:31.991Z,100517.53
2022-09-28T12:39:23.951Z,100521.94
2022-09-28T12:42:19.804Z,100507.88
2022-09-28T12:45:17.716Z,100497.09
2022-09-28T12:48:17.735Z,100490.28
2022-09-28T12:50:58.812Z,100473.38
2022-09-28T12:53:57.274Z,100471.38
2022-09-28T12:56:40.897Z,100469.94
2022-09-28T12:59:26.882Z,100463.13
2022-09-28T13:02:31.385Z,100457.94
2022-09-28T13:05:10.639Z,100459.16
2022-09-28T13:08:14.512Z,100454.09
2022-09-28T13:11:07.984Z,100447.59
2022-09-28T13:14:06.715Z,100446.94
2022-09-28T13:17:00.880Z,100436.53
2022-09-28T13:19:54.929Z,100434.00
2022-09-28T13:22:44.518Z,100429.34
2022-09-28T13:25:19.158Z,100426.63
2022-09-28T13:28:06.492Z,100415.41
2022-09-28T13:30:38.975Z,100414.09
2022-09-28T13:33:10.506Z,100414.56
2022-09-28T13:35:43.807Z,100419.56
2022-09-28T13:38:17.714Z,100409.72
2022-09-28T13:41:10.335Z,100408.88
2022-09-28T13:44:01.107Z,100402.75
2022-09-28T13:47:05.642Z,100399.91
2022-09-28T13:49:42.611Z,100403.88
2022-09-28T13:52:13.277Z,100391.81
2022-09-28T13:54:53.443Z,100392.03
2022-09-28T13:57:53.303Z,100387.81
2022-09-28T14:00:37.630Z,100385.97
2022-09-28T14:03:26.709Z,100363.38
2022-09-28T14:06:06.322Z,100356.13
2022-09-28T14:09:14.768Z,100353.53
2022-09-28T14:11:59.618Z,100351.69
2022-09-28T14:14:45.754Z,100344.13
2022-09-28T14:17:22.479Z,100352.34
2022-09-28T14:19:58.631Z,100345.84
2022-09-28T14:22:39.898Z,100352.13
2022-09-28T14:25:10.248Z,100343.09
2022-09-28T14:28:19.493Z,100339.13
2022-09-28T14:30:51.671Z,100344.56
2022-09-28T14:33:22.502Z,100344.78
2022-09-28T14:36:02.443Z,100342.25
2022-09-28T14:39:08.796Z,100350.03
2022-09-28T14:41:40.880Z,100344.06
2022-09-28T14:44:13.878Z,100330.38
2022-09-28T14:46:46.551Z,100340.69
2022-09-28T14:49:19.936Z,100319.06
2022-09-28T14:51:59.136Z,100323.00
2022-09-28T14:54:54.255Z,100311.31
2022-09-28T14:57:29.728Z,100318.19
2022-09-28T15:00:08.170Z,100313.06
2022-09-28T15:02:39.177Z,100307.47
2022-09-28T15:05:06.587Z,100309.69
2022-09-28T15:07:49.917Z,100305.97
2022-09-28T15:10:41.020Z,100303.50
2022-09-28T15:13:21.055Z,100303.94
2022-09-28T15:15:52.480Z,100302.28
2022-09-28T15:18:19.686Z,100303.03
2022-09-28T15:20:49.477Z,100298.09
2022-09-28T15:23:37.820Z,100294.72
2022-09-28T15:26:13.539Z,100301.97
2022-09-28T15:28:45.343Z,100294.72
2022-09-28T15:31:19.897Z,100287.94
2022-09-28T15:34:14.455Z,100297.84
2022-09-28T15:36:49.674Z,100291.88
2022-09-28T15:39:28.082Z,100286.63
2022-09-28T15:41:59.145Z,100296.34
2022-09-28T15:44:33.653Z,100290.22
2022-09-28T15:47:17.244Z,100284.50
2022-09-28T15:49:44.625Z,100288.88
2022-09-28T15:52:28.587Z,100278.59
2022-09-28T15:54:56.381Z,100286.31
2022-09-28T15:57:37.529Z,100283.56
2022-09-28T16:00:23.401Z,100284.66
2022-09-28T16:03:06.163Z,100278.88
2022-09-28T16:05:59.854Z,100277.88
2022-09-28T16:08:39.225Z,100274.72
2022-09-28T16:11:19.890Z,100268.88
2022-09-28T16:14:01.912Z,100280.97
2022-09-28T16:16:50.840Z,100284.53
2022-09-28T16:19:25.892Z,100271.97
2022-09-28T16:21:56.058Z,100270.53
2022-09-28T16:24:32.947Z,100268.53
2022-09-28T16:27:16.789Z,100267.03
2022-09-28T16:29:45.383Z,100271.31
2022-09-28T16:32:30.654Z,100276.69
2022-09-28T16:35:12.834Z,100275.69
2022-09-28T16:37:43.072Z,100270.31
2022-09-28T16:40:11.357Z,100263.41
2022-09-28T16:42:44.406Z,100262.06
2022-09-28T16:45:23.684Z,100258.13
2022-09-28T16:47:53.613Z,100266.25
2022-09-28T16:50:21.852Z,100261.28
2022-09-28T16:53:21.780Z,100258.50
2022-09-28T16:55:50.067Z,100269.84
2022-09-28T16:58:17.335Z,100270.38
2022-09-28T17:00:46.056Z,100279.53
2022-09-28T17:03:16.489Z,100276.22
2022-09-28T17:05:44.573Z,100271.63
2022-09-28T17:08:18.586Z,100274.41
2022-09-28T17:11:16.907Z,100272.09
2022-09-28T17:13:46.529Z,100267.53
2022-09-28T17:16:18.151Z,100274.03
2022-09-28T17:18:46.708Z,100280.53
2022-09-28T17:21:16.955Z,100274.56
2022-09-28T17:23:45.026Z,100276.09
2022-09-28T17:26:30.011Z,100275.69
2022-09-28T17:29:02.076Z,100282.78
2022-09-28T17:31:30.855Z,100263.09
2022-09-28T17:33:58.958Z,100270.06
2022-09-28T17:36:27.303Z,100269.09
2022-09-28T17:38:56.893Z,100266.66
2022-09-28T17:41:24.245Z,100279.50
2022-09-28T17:43:51.614Z,100274.53
2022-09-28T17:46:27.627Z,100276.81
2022-09-28T17:48:57.786Z,100274.09
2022-09-28T17:51:25.920Z,100264.47
2022-09-28T17:53:56.405Z,100273.75
2022-09-28T17:56:32.098Z,100269.00
2022-09-28T17:59:03.348Z,100269.69
2022-09-28T18:01:34.798Z,100271.97
2022-09-28T18:04:08.349Z,100277.88
2022-09-28T18:06:37.470Z,100268.47
2022-09-28T18:09:12.172Z,100270.41
2022-09-28T18:11:44.849Z,100279.66
2022-09-28T18:14:12.440Z,100275.59
2022-09-28T18:16:39.657Z,100281.25
2022-09-28T18:19:08.204Z,100284.84
2022-09-28T18:31:53.029Z,100293.06
2022-09-28T19:01:34.979Z,100301.25
2022-09-28T19:04:19.265Z,100314.16
2022-09-28T19:06:56.522Z,100311.13
2022-09-28T19:09:29.237Z,100320.53
2022-09-28T19:12:05.974Z,100317.66
2022-09-28T19:14:39.697Z,100320.31
2022-09-28T19:17:13.166Z,100316.63
2022-09-28T19:19:43.805Z,100312.53
2022-09-28T19:22:19.403Z,100325.81
2022-09-28T19:24:54.242Z,100325.88
2022-09-28T19:27:22.616Z,100335.75
2022-09-28T19:29:56.126Z,100336.47
2022-09-28T19:32:34.966Z,100342.66
2022-09-28T19:35:11.072Z,100346.53
2022-09-28T19:37:40.226Z,100345.84
2022-09-28T19:40:16.922Z,100342.28
2022-09-28T19:42:46.531Z,100342.81
2022-09-28T19:45:22.162Z,100355.84
2022-09-28T19:47:50.403Z,100359.34
2022-09-28T19:50:20.559Z,100351.00
2022-09-28T19:52:47.924Z,100354.09
2022-09-28T19:55:26.145Z,100349.66
2022-09-28T19:57:59.116Z,100358.78
2022-09-28T20:00:26.820Z,100351.88
2022-09-28T20:02:54.562Z,100365.75
2022-09-28T20:05:22.218Z,100366.38
2022-09-28T20:07:49.461Z,100366.44
2022-09-28T20:10:17.298Z,100365.16
2022-09-28T20:12:44.796Z,100360.81
2022-09-28T20:15:12.198Z,100372.25
2022-09-28T20:17:42.514Z,100371.47
2022-09-28T20:20:10.581Z,100370.94
2022-09-28T20:22:38.572Z,100375.13
2022-09-28T20:25:06.531Z,100376.09
2022-09-28T20:27:46.725Z,100370.94
2022-09-28T20:30:16.220Z,100376.47
2022-09-28T20:32:49.663Z,100377.47
2022-09-28T20:35:32.237Z,100381.97
2022-09-28T20:38:08.517Z,100381.84
2022-09-28T20:40:42.918Z,100383.69
2022-09-28T20:43:20.161Z,100387.31
2022-09-28T20:45:47.448Z,100386.56
2022-09-28T20:48:19.902Z,100393.75
2022-09-28T20:50:59.956Z,100385.78
2022-09-28T20:53:35.393Z,100394.88
2022-09-28T20:56:14.536Z,100395.69
2022-09-28T20:58:43.203Z,100398.53
2022-09-28T21:01:33.897Z,100412.00
2022-09-28T21:04:11.892Z,100419.31
2022-09-28T21:09:49.189Z,100427.50
2022-09-28T21:12:26.358Z,100429.56
2022-09-28T21:15:02.339Z,100428.19
2022-09-28T21:18:01.078Z,100425.63
2022-09-28T21:20:51.141Z,100423.03
2022-09-28T21:23:25.036Z,100424.28
2022-09-28T21:26:30.591Z,100433.06
2022-09-28T21:29:22.784Z,100441.22
2022-09-28T21:31:53.057Z,100443.88
2022-09-28T21:34:21.473Z,100452.69
2022-09-28T21:36:54.214Z,100441.50
2022-09-28T21:39:29.764Z,100442.63
2022-09-28T21:42:00.095Z,100442.63
2022-09-28T21:44:39.217Z,100441.75
2022-09-28T21:47:14.104Z,100447.25
2022-09-28T21:49:47.430Z,100441.50
2022-09-28T21:52:16.351Z,100441.09
2022-09-28T21:54:45.864Z,100441.41
2022-09-28T21:57:16.346Z,100440.19
2022-09-28T21:59:45.980Z,100428.59
2022-09-28T22:02:16.600Z,100438.44
2022-09-28T22:04:47.758Z,100450.09
2022-09-28T22:07:15.402Z,100446.28
2022-09-28T22:09:50.429Z,100457.59
2022-09-28T22:12:20.560Z,100459.38
2022-09-28T22:14:48.124Z,100460.28
2022-09-28T22:17:18.970Z,100464.09
2022-09-28T22:19:46.626Z,100463.31
2022-09-28T22:22:13.890Z,100458.81
2022-09-28T22:24:41.423Z,100469.81
2022-09-28T22:27:15.874Z,100463.28
2022-09-28T22:29:47.728Z,100466.84
2022-09-28T22:32:19.271Z,100465.16
2022-09-28T22:34:46.643Z,100464.25
2022-09-28T22:37:16.748Z,100466.84
2022-09-28T22:39:48.615Z,100485.63
2022-09-28T22:42:16.684Z,100486.06
2022-09-28T22:44:43.916Z,100487.28
2022-09-28T22:47:11.294Z,100487.28
2022-09-28T22:49:38.766Z,100485.63
2022-09-28T22:52:06.071Z,100490.03
2022-09-28T22:54:33.625Z,100479.38
2022-09-28T22:57:00.829Z,100481.09
